createdAt,value
2023-05-03T00:00:23.809Z,0.00
2023-05-03T00:01:27.878Z,0.00
2023-05-03T00:02:39.597Z,0.00
2023-05-03T00:03:43.583Z,0.00
2023-05-03T00:04:47.619Z,0.00
2023-05-03T00:05:51.662Z,0.00
2023-05-03T00:06:55.790Z,0.00
2023-05-03T00:07:59.869Z,0.00
2023-05-03T00:09:03.809Z,0.00
2023-05-03T00:10:07.770Z,0.00
2023-05-03T00:11:11.770Z,0.50
2023-05-03T00:12:15.872Z,0.50
2023-05-03T00:13:20.080Z,0.00
2023-05-03T00:14:24.182Z,0.00
2023-05-03T00:15:28.210Z,0.00
2023-05-03T00:16:32.222Z,0.00
2023-05-03T00:17:36.085Z,0.50
2023-05-03T00:18:39.957Z,0.00
2023-05-03T00:19:43.984Z,0.00
2023-05-03T00:20:48.705Z,0.00
2023-05-03T00:21:52.792Z,0.00
2023-05-03T00:22:57.327Z,0.00
2023-05-03T00:24:01.564Z,0.00
2023-05-03T00:25:05.837Z,0.00
2023-05-03T00:26:10.165Z,0.00
2023-05-03T00:27:14.561Z,0.00
2023-05-03T00:28:18.959Z,0.00
2023-05-03T00:29:22.987Z,0.00
2023-05-03T00:30:27.268Z,0.50
2023-05-03T00:31:31.664Z,0.50
2023-05-03T00:32:35.930Z,0.00
2023-05-03T00:33:40.295Z,0.00
2023-05-03T00:34:44.297Z,0.00
2023-05-03T00:35:48.150Z,0.00
2023-05-03T00:36:52.101Z,0.00
2023-05-03T00:37:56.200Z,0.50
2023-05-03T00:39:00.407Z,0.50
2023-05-03T00:40:04.677Z,0.00
2023-05-03T00:41:08.925Z,0.00
2023-05-03T00:42:13.024Z,0.00
2023-05-03T00:43:17.124Z,0.00
2023-05-03T00:44:21.128Z,0.00
2023-05-03T00:45:25.129Z,0.00
2023-05-03T00:46:29.278Z,0.00
2023-05-03T00:47:33.365Z,0.00
2023-05-03T00:48:37.442Z,0.00
2023-05-03T00:49:41.550Z,0.00
2023-05-03T00:50:45.748Z,0.50
2023-05-03T00:51:49.853Z,0.00
2023-05-03T00:52:53.854Z,0.00
2023-05-03T00:53:57.962Z,0.25
2023-05-03T00:55:02.061Z,0.00
2023-05-03T00:56:06.177Z,0.00
2023-05-03T00:57:10.275Z,0.00
2023-05-03T00:58:14.374Z,0.00
2023-05-03T00:59:18.375Z,0.00
2023-05-03T01:00:22.496Z,0.50
2023-05-03T01:01:26.597Z,0.75
2023-05-03T01:02:30.598Z,0.00
2023-05-03T01:03:34.708Z,0.50
2023-05-03T01:04:39.098Z,0.50
2023-05-03T01:05:43.914Z,0.00
2023-05-03T01:06:48.274Z,0.00
2023-05-03T01:07:52.428Z,0.50
2023-05-03T01:08:56.532Z,0.00
2023-05-03T01:10:00.756Z,0.00
2023-05-03T01:11:04.943Z,0.50
2023-05-03T01:12:09.366Z,0.00
2023-05-03T01:13:13.296Z,0.00
2023-05-03T01:14:17.255Z,0.00
2023-05-03T01:15:21.481Z,0.00
2023-05-03T01:16:25.596Z,0.50
2023-05-03T01:17:29.685Z,1.00
2023-05-03T01:18:33.566Z,1.50
2023-05-03T01:19:37.463Z,1.50
2023-05-03T01:20:41.428Z,0.50
2023-05-03T01:22:57.154Z,1.00
2023-05-03T01:24:01.454Z,1.25
2023-05-03T01:25:05.764Z,0.25
2023-05-03T01:26:10.174Z,0.50
2023-05-03T01:27:14.922Z,1.00
2023-05-03T01:28:19.200Z,0.50
2023-05-03T01:29:23.508Z,1.00
2023-05-03T01:30:27.826Z,2.00
2023-05-03T01:31:31.961Z,2.50
2023-05-03T01:32:36.253Z,1.50
2023-05-03T01:33:40.666Z,1.00
2023-05-03T01:34:44.944Z,1.00
2023-05-03T01:35:49.257Z,1.00
2023-05-03T01:36:53.563Z,0.00
2023-05-03T01:37:57.781Z,1.00
2023-05-03T01:39:02.486Z,1.00
2023-05-03T01:40:06.939Z,1.50
2023-05-03T01:41:11.309Z,1.50
2023-05-03T01:42:15.523Z,1.00
2023-05-03T01:43:19.742Z,0.50
2023-05-03T01:44:23.937Z,0.00
2023-05-03T01:45:28.027Z,0.50
2023-05-03T01:46:32.314Z,0.00
2023-05-03T01:47:36.398Z,2.00
2023-05-03T01:48:40.442Z,3.00
2023-05-03T01:49:44.450Z,2.00
2023-05-03T01:50:48.465Z,1.00
2023-05-03T01:51:52.651Z,1.00
2023-05-03T01:52:56.889Z,1.25
2023-05-03T01:54:00.857Z,1.50
2023-05-03T01:55:04.969Z,1.00
2023-05-03T01:56:09.067Z,0.75
2023-05-03T01:57:13.206Z,1.50
2023-05-03T01:58:17.102Z,1.00
2023-05-03T01:59:20.935Z,1.00
2023-05-03T02:00:24.876Z,0.50
2023-05-03T02:01:28.769Z,1.00
2023-05-03T02:02:32.678Z,1.00
2023-05-03T02:03:36.728Z,0.25
2023-05-03T02:04:40.697Z,1.00
2023-05-03T02:05:44.574Z,1.75
2023-05-03T02:06:48.771Z,1.75
2023-05-03T02:07:52.895Z,2.00
2023-05-03T02:08:56.797Z,0.50
2023-05-03T02:10:00.964Z,1.25
2023-05-03T02:11:05.085Z,1.25
2023-05-03T02:12:09.087Z,1.50
2023-05-03T02:13:12.984Z,1.50
2023-05-03T02:14:16.985Z,1.00
2023-05-03T02:15:21.085Z,0.50
2023-05-03T02:16:25.112Z,0.50
2023-05-03T02:17:29.106Z,0.50
2023-05-03T02:18:33.090Z,0.00
2023-05-03T02:19:36.990Z,0.50
2023-05-03T02:20:40.860Z,0.50
2023-05-03T02:21:44.888Z,1.00
2023-05-03T02:22:48.982Z,1.00
2023-05-03T02:23:52.995Z,0.00
2023-05-03T02:24:57.307Z,0.50
2023-05-03T02:26:01.662Z,1.00
2023-05-03T02:27:05.813Z,1.00
2023-05-03T02:28:09.818Z,1.00
2023-05-03T02:29:14.020Z,1.00
2023-05-03T02:30:18.344Z,1.00
2023-05-03T02:31:22.485Z,1.00
2023-05-03T02:32:26.869Z,0.50
2023-05-03T02:33:31.059Z,0.00
2023-05-03T02:34:35.281Z,0.00
2023-05-03T02:35:39.258Z,0.75
2023-05-03T02:36:43.465Z,0.50
2023-05-03T02:37:47.667Z,1.25
2023-05-03T02:38:51.872Z,1.00
2023-05-03T02:39:55.979Z,1.00
2023-05-03T02:41:00.213Z,0.50
2023-05-03T02:42:04.391Z,0.50
2023-05-03T02:43:08.704Z,1.00
2023-05-03T02:44:12.913Z,0.00
2023-05-03T02:45:17.209Z,0.50
2023-05-03T02:46:21.347Z,0.50
2023-05-03T02:47:25.518Z,0.25
2023-05-03T02:48:29.522Z,1.00
2023-05-03T02:49:33.486Z,0.00
2023-05-03T02:50:37.418Z,0.00
2023-05-03T02:51:41.420Z,0.25
2023-05-03T02:52:45.427Z,0.50
2023-05-03T02:53:49.526Z,0.50
2023-05-03T02:54:53.633Z,0.00
2023-05-03T02:55:57.633Z,0.50
2023-05-03T02:57:01.637Z,0.50
2023-05-03T02:58:05.739Z,0.00
2023-05-03T02:59:09.732Z,0.00
2023-05-03T03:00:13.623Z,0.50
2023-05-03T03:01:17.687Z,0.25
2023-05-03T03:02:21.837Z,1.00
2023-05-03T03:03:27.247Z,0.00
2023-05-03T03:04:31.274Z,0.00
2023-05-03T03:05:35.591Z,0.75
2023-05-03T03:06:39.549Z,1.00
2023-05-03T03:07:43.790Z,0.50
2023-05-03T03:08:48.120Z,0.50
2023-05-03T03:09:52.300Z,1.00
2023-05-03T03:10:56.511Z,0.50
2023-05-03T03:12:00.713Z,0.00
2023-05-03T03:13:04.925Z,0.25
2023-05-03T03:14:09.228Z,0.00
2023-05-03T03:15:13.513Z,1.00
2023-05-03T03:16:17.894Z,0.50
2023-05-03T03:17:22.091Z,0.00
2023-05-03T03:18:26.231Z,0.75
2023-05-03T03:19:30.360Z,1.00
2023-05-03T03:20:34.456Z,1.50
2023-05-03T03:21:38.674Z,1.00
2023-05-03T03:22:42.980Z,0.00
2023-05-03T03:23:47.495Z,0.00
2023-05-03T03:24:51.811Z,0.00
2023-05-03T03:25:56.012Z,0.00
2023-05-03T03:27:00.423Z,0.00
2023-05-03T03:28:04.725Z,0.50
2023-05-03T03:29:09.034Z,0.50
2023-05-03T03:30:13.249Z,0.00
2023-05-03T03:31:17.572Z,0.50
2023-05-03T03:32:21.767Z,0.50
2023-05-03T03:33:25.904Z,0.00
2023-05-03T03:34:30.484Z,0.50
2023-05-03T03:35:34.684Z,1.00
2023-05-03T03:36:38.874Z,0.50
2023-05-03T03:37:42.993Z,0.00
2023-05-03T03:38:46.864Z,0.00
2023-05-03T03:39:50.833Z,0.50
2023-05-03T03:40:54.682Z,0.50
2023-05-03T03:41:58.800Z,0.00
2023-05-03T03:43:02.918Z,0.00
2023-05-03T03:44:06.896Z,0.00
2023-05-03T03:45:10.897Z,0.00
2023-05-03T03:46:14.799Z,0.50
2023-05-03T03:47:18.860Z,0.50
2023-05-03T03:48:23.110Z,0.00
2023-05-03T03:49:27.217Z,0.50
2023-05-03T03:50:31.420Z,0.00
2023-05-03T03:51:35.516Z,0.50
2023-05-03T03:52:39.428Z,0.00
2023-05-03T03:53:43.530Z,0.25
2023-05-03T03:54:47.664Z,1.00
2023-05-03T03:55:51.741Z,1.00
2023-05-03T03:56:55.838Z,0.00
2023-05-03T03:57:59.815Z,0.50
2023-05-03T03:59:07.118Z,0.00
2023-05-03T04:00:11.521Z,0.00
2023-05-03T04:01:15.833Z,0.00
2023-05-03T04:02:20.160Z,0.00
2023-05-03T04:03:24.296Z,0.00
2023-05-03T04:04:28.705Z,0.00
2023-05-03T04:05:33.036Z,0.00
2023-05-03T04:06:37.314Z,0.00
2023-05-03T04:07:41.790Z,0.00
2023-05-03T04:08:46.188Z,0.00
2023-05-03T04:09:50.625Z,0.50
2023-05-03T04:10:54.841Z,0.00
2023-05-03T04:11:59.363Z,0.50
2023-05-03T04:13:03.535Z,0.75
2023-05-03T04:14:07.839Z,0.00
2023-05-03T04:15:12.157Z,0.50
2023-05-03T04:16:16.384Z,1.50
2023-05-03T04:17:20.871Z,0.50
2023-05-03T04:18:25.064Z,0.50
2023-05-03T04:19:29.271Z,0.00
2023-05-03T04:20:33.370Z,0.00
2023-05-03T04:21:38.015Z,0.00
2023-05-03T04:22:42.610Z,0.00
2023-05-03T04:23:46.826Z,0.00
2023-05-03T04:24:51.195Z,0.50
2023-05-03T04:25:55.435Z,0.00
2023-05-03T04:26:59.883Z,0.00
2023-05-03T04:28:04.058Z,0.00
2023-05-03T04:29:08.208Z,1.00
2023-05-03T04:30:13.400Z,1.50
2023-05-03T04:31:17.820Z,0.75
2023-05-03T04:32:22.116Z,0.00
2023-05-03T04:33:26.237Z,0.00
2023-05-03T04:34:30.512Z,1.25
2023-05-03T04:35:34.970Z,1.50
2023-05-03T04:36:39.738Z,0.50
2023-05-03T04:37:43.740Z,0.00
2023-05-03T04:38:48.049Z,0.00
2023-05-03T04:39:52.058Z,0.00
2023-05-03T04:40:56.050Z,0.50
2023-05-03T04:42:00.305Z,0.50
2023-05-03T04:43:04.334Z,0.00
2023-05-03T04:44:08.375Z,0.00
2023-05-03T04:45:12.484Z,0.00
2023-05-03T04:46:16.839Z,0.00
2023-05-03T04:47:20.881Z,0.00
2023-05-03T04:48:25.213Z,0.00
2023-05-03T04:49:29.397Z,0.00
2023-05-03T04:50:33.414Z,0.00
2023-05-03T04:51:37.615Z,0.00
2023-05-03T04:52:41.572Z,0.00
2023-05-03T04:53:45.623Z,0.00
2023-05-03T04:54:49.598Z,0.50
2023-05-03T04:55:53.714Z,0.50
2023-05-03T04:56:57.914Z,0.00
2023-05-03T04:58:02.268Z,0.00
2023-05-03T04:59:06.318Z,0.50
2023-05-03T05:00:10.758Z,0.50
2023-05-03T05:01:15.009Z,0.00
2023-05-03T05:02:22.341Z,0.00
2023-05-03T05:03:26.481Z,0.00
2023-05-03T05:04:30.531Z,0.00
2023-05-03T05:05:34.624Z,0.00
2023-05-03T05:06:38.763Z,0.50
2023-05-03T05:07:42.946Z,0.00
2023-05-03T05:08:46.947Z,0.00
2023-05-03T05:09:51.155Z,0.50
2023-05-03T05:10:55.188Z,0.50
2023-05-03T05:11:59.106Z,0.00
2023-05-03T05:13:03.161Z,0.50
2023-05-03T05:14:07.252Z,0.50
2023-05-03T05:15:11.399Z,0.00
2023-05-03T05:16:15.694Z,0.00
2023-05-03T05:17:20.035Z,0.00
2023-05-03T05:18:24.207Z,0.50
2023-05-03T05:19:28.492Z,0.00
2023-05-03T05:20:32.483Z,0.00
2023-05-03T05:21:36.715Z,0.00
2023-05-03T05:22:40.792Z,0.00
2023-05-03T05:23:45.012Z,0.00
2023-05-03T05:24:48.932Z,0.00
2023-05-03T05:25:52.794Z,0.50
2023-05-03T05:26:56.915Z,0.00
2023-05-03T05:28:01.034Z,0.00
2023-05-03T05:29:05.207Z,1.50
2023-05-03T05:30:09.208Z,0.75
2023-05-03T05:31:13.456Z,0.50
2023-05-03T05:32:18.134Z,0.00
2023-05-03T05:33:22.362Z,0.00
2023-05-03T05:34:26.339Z,0.00
2023-05-03T05:35:30.504Z,0.00
2023-05-03T05:36:34.990Z,0.00
2023-05-03T05:37:39.066Z,0.00
2023-05-03T05:38:43.176Z,0.50
2023-05-03T05:39:47.363Z,0.50
2023-05-03T05:40:51.477Z,0.50
2023-05-03T05:41:55.500Z,0.50
2023-05-03T05:42:59.438Z,0.50
2023-05-03T05:44:03.683Z,0.00
2023-05-03T05:45:08.062Z,0.00
2023-05-03T05:46:12.618Z,0.00
2023-05-03T05:47:22.754Z,0.25
2023-05-03T05:48:27.070Z,0.00
2023-05-03T05:49:31.471Z,0.50
2023-05-03T05:50:36.091Z,0.50
2023-05-03T05:51:40.598Z,0.00
2023-05-03T05:52:44.724Z,0.50
2023-05-03T05:53:48.807Z,0.00
2023-05-03T05:54:53.028Z,0.00
2023-05-03T05:55:57.240Z,0.00
2023-05-03T05:57:01.640Z,0.00
2023-05-03T05:58:06.153Z,0.00
2023-05-03T05:59:10.497Z,0.00
2023-05-03T06:00:14.825Z,0.00
2023-05-03T06:01:19.270Z,0.50
2023-05-03T06:02:23.486Z,1.00
2023-05-03T06:03:27.438Z,0.50
2023-05-03T06:04:31.559Z,0.00
2023-05-03T06:05:35.664Z,0.00
2023-05-03T06:06:40.163Z,0.00
2023-05-03T06:07:44.314Z,0.25
2023-05-03T06:08:48.214Z,0.00
2023-05-03T06:09:52.338Z,0.00
2023-05-03T06:10:56.930Z,0.00
2023-05-03T06:12:00.936Z,0.50
2023-05-03T06:13:05.042Z,0.50
2023-05-03T06:14:09.137Z,0.50
2023-05-03T06:15:13.132Z,0.50
2023-05-03T06:16:17.134Z,0.00
2023-05-03T06:17:21.972Z,0.00
2023-05-03T06:18:26.176Z,0.00
2023-05-03T06:19:30.171Z,0.00
2023-05-03T06:20:34.166Z,0.50
2023-05-03T06:21:38.274Z,0.00
2023-05-03T06:22:42.195Z,0.50
2023-05-03T06:23:46.177Z,0.00
2023-05-03T06:24:50.165Z,0.50
2023-05-03T06:25:54.268Z,1.00
2023-05-03T06:26:58.320Z,0.50
2023-05-03T06:28:02.283Z,0.00
2023-05-03T06:29:06.484Z,0.00
2023-05-03T06:30:10.891Z,0.00
2023-05-03T06:31:15.140Z,0.00
2023-05-03T06:32:19.302Z,0.50
2023-05-03T06:33:23.306Z,0.00
2023-05-03T06:34:27.313Z,0.50
2023-05-03T06:35:31.616Z,0.50
2023-05-03T06:36:35.723Z,0.00
2023-05-03T06:37:39.829Z,0.00
2023-05-03T06:38:43.929Z,0.00
2023-05-03T06:39:48.040Z,0.50
2023-05-03T06:40:52.256Z,0.00
2023-05-03T06:41:56.228Z,0.00
2023-05-03T06:43:00.664Z,0.00
2023-05-03T06:44:05.060Z,0.00
2023-05-03T06:45:09.254Z,0.50
2023-05-03T06:46:13.692Z,0.25
2023-05-03T06:47:18.190Z,0.50
2023-05-03T06:48:22.383Z,0.00
2023-05-03T06:49:26.812Z,0.00
2023-05-03T06:50:31.284Z,0.25
2023-05-03T06:51:35.814Z,0.50
2023-05-03T06:52:40.077Z,0.25
2023-05-03T06:53:44.640Z,0.25
2023-05-03T06:54:49.060Z,0.00
2023-05-03T06:55:53.468Z,0.50
2023-05-03T06:56:58.014Z,0.00
2023-05-03T06:58:03.540Z,0.00
2023-05-03T06:59:07.474Z,0.00
2023-05-03T07:00:11.738Z,0.00
2023-05-03T07:01:16.057Z,0.00
2023-05-03T07:02:20.244Z,0.00
2023-05-03T07:03:24.616Z,0.00
2023-05-03T07:04:28.859Z,0.00
2023-05-03T07:05:33.178Z,0.00
2023-05-03T07:06:48.307Z,0.00
2023-05-03T07:07:42.802Z,0.00
2023-05-03T07:08:47.225Z,0.00
2023-05-03T07:09:52.452Z,0.00
2023-05-03T07:10:56.643Z,0.00
2023-05-03T07:12:00.952Z,0.00
2023-05-03T07:13:05.284Z,0.00
2023-05-03T07:14:09.588Z,0.00
2023-05-03T07:15:14.189Z,1.00
2023-05-03T07:16:18.743Z,0.50
2023-05-03T07:17:23.098Z,0.00
2023-05-03T07:18:29.605Z,0.00
2023-05-03T07:19:34.104Z,0.00
2023-05-03T07:20:38.404Z,0.00
2023-05-03T07:21:42.906Z,0.50
2023-05-03T07:22:47.013Z,0.50
2023-05-03T07:23:51.220Z,0.00
2023-05-03T07:24:55.807Z,0.00
2023-05-03T07:26:00.168Z,0.00
2023-05-03T07:27:04.250Z,0.00
2023-05-03T07:28:08.150Z,0.00
2023-05-03T07:29:12.106Z,0.00
2023-05-03T07:30:16.123Z,0.00
2023-05-03T07:31:20.164Z,0.50
2023-05-03T07:32:24.545Z,1.00
2023-05-03T07:33:28.785Z,1.00
2023-05-03T07:34:32.790Z,0.50
2023-05-03T07:35:36.892Z,0.50
2023-05-03T07:36:41.804Z,0.50
2023-05-03T07:37:45.894Z,0.00
2023-05-03T07:38:50.199Z,0.50
2023-05-03T07:39:55.133Z,0.00
2023-05-03T07:40:59.344Z,0.00
2023-05-03T07:42:05.274Z,0.00
2023-05-03T07:43:09.475Z,0.00
2023-05-03T07:44:15.514Z,0.00
2023-05-03T07:45:19.363Z,0.00
2023-05-03T07:46:23.837Z,0.00
2023-05-03T07:47:28.330Z,0.00
2023-05-03T07:48:32.394Z,0.00
2023-05-03T07:49:36.771Z,0.00
2023-05-03T07:50:41.291Z,0.00
2023-05-03T07:51:45.408Z,0.00
2023-05-03T07:52:50.098Z,0.00
2023-05-03T07:53:54.195Z,0.50
2023-05-03T07:54:58.523Z,0.50
2023-05-03T07:56:03.027Z,0.00
2023-05-03T07:57:07.231Z,0.50
2023-05-03T07:58:11.432Z,0.50
2023-05-03T07:59:15.745Z,1.00
2023-05-03T08:00:21.703Z,1.00
2023-05-03T08:01:25.396Z,0.00
2023-05-03T08:02:29.539Z,0.00
2023-05-03T08:03:33.879Z,0.00
2023-05-03T08:04:38.648Z,0.00
2023-05-03T08:05:42.880Z,0.00
2023-05-03T08:06:47.160Z,0.00
2023-05-03T08:07:51.438Z,0.50
2023-05-03T08:08:55.640Z,1.00
2023-05-03T08:09:59.894Z,0.50
2023-05-03T08:11:04.257Z,1.00
2023-05-03T08:12:08.562Z,0.00
2023-05-03T08:13:12.774Z,0.75
2023-05-03T08:14:17.081Z,0.50
2023-05-03T08:15:21.459Z,0.00
2023-05-03T08:16:25.956Z,1.00
2023-05-03T08:17:30.233Z,1.00
2023-05-03T08:18:34.717Z,0.00
2023-05-03T08:19:38.829Z,0.00
2023-05-03T08:20:42.797Z,0.00
2023-05-03T08:21:47.059Z,0.50
2023-05-03T08:22:50.853Z,1.50
2023-05-03T08:23:54.731Z,0.50
2023-05-03T08:24:58.514Z,0.50
2023-05-03T08:26:02.561Z,1.50
2023-05-03T08:27:06.537Z,1.75
2023-05-03T08:28:10.637Z,0.00
2023-05-03T08:29:14.753Z,1.00
2023-05-03T08:30:18.937Z,1.00
2023-05-03T08:31:23.051Z,0.50
2023-05-03T08:32:26.866Z,0.75
2023-05-03T08:33:30.735Z,0.25
2023-05-03T08:34:35.140Z,0.00
2023-05-03T08:35:38.868Z,0.00
2023-05-03T08:36:42.758Z,0.00
2023-05-03T08:37:46.855Z,1.00
2023-05-03T08:38:50.844Z,1.00
2023-05-03T08:39:54.957Z,0.00
2023-05-03T08:40:58.961Z,0.75
2023-05-03T08:42:02.956Z,0.50
2023-05-03T08:43:07.073Z,1.00
2023-05-03T08:44:10.998Z,1.00
2023-05-03T08:45:14.966Z,0.75
2023-05-03T08:46:19.122Z,0.75
2023-05-03T08:47:23.171Z,0.75
2023-05-03T08:48:27.718Z,1.00
2023-05-03T08:49:31.988Z,1.00
2023-05-03T08:50:35.777Z,1.00
2023-05-03T08:51:39.772Z,1.00
2023-05-03T08:52:44.343Z,0.75
2023-05-03T08:53:48.614Z,1.00
2023-05-03T08:54:52.572Z,1.00
2023-05-03T08:55:56.517Z,2.00
2023-05-03T08:57:00.498Z,1.00
2023-05-03T08:58:04.606Z,1.00
2023-05-03T08:59:08.824Z,1.00
2023-05-03T09:00:13.344Z,1.00
2023-05-03T09:01:17.907Z,1.00
2023-05-03T09:02:22.074Z,1.50
2023-05-03T09:03:26.373Z,1.00
2023-05-03T09:04:30.424Z,1.50
2023-05-03T09:05:34.351Z,2.00
2023-05-03T09:06:38.558Z,2.00
2023-05-03T09:07:42.669Z,1.25
2023-05-03T09:08:47.197Z,1.25
2023-05-03T09:09:51.279Z,1.00
2023-05-03T09:10:55.532Z,2.00
2023-05-03T09:11:59.428Z,2.75
2023-05-03T09:13:03.421Z,2.50
2023-05-03T09:14:14.045Z,1.50
2023-05-03T09:15:18.473Z,0.00
2023-05-03T09:16:22.503Z,0.00
2023-05-03T09:17:26.895Z,0.50
2023-05-03T09:18:31.071Z,1.25
2023-05-03T09:19:38.965Z,1.50
2023-05-03T09:20:43.145Z,1.00
2023-05-03T09:21:47.499Z,0.50
2023-05-03T09:22:51.801Z,2.00
2023-05-03T09:23:55.785Z,1.50
2023-05-03T09:25:00.269Z,0.75
2023-05-03T09:26:06.374Z,1.00
2023-05-03T09:27:10.153Z,1.00
2023-05-03T09:28:14.245Z,1.00
2023-05-03T09:29:18.387Z,0.75
2023-05-03T09:30:22.247Z,1.25
2023-05-03T09:31:26.316Z,1.50
2023-05-03T09:32:30.168Z,1.50
2023-05-03T09:33:34.053Z,1.00
2023-05-03T09:34:38.250Z,0.00
2023-05-03T09:35:42.457Z,1.00
2023-05-03T09:38:07.866Z,1.00
2023-05-03T09:39:11.866Z,1.00
2023-05-03T09:40:15.874Z,1.50
2023-05-03T09:41:19.869Z,1.00
2023-05-03T09:42:23.751Z,1.00
2023-05-03T09:43:27.662Z,1.50
2023-05-03T09:44:31.471Z,0.50
2023-05-03T09:45:35.400Z,0.75
2023-05-03T09:46:39.269Z,0.75
2023-05-03T09:47:43.216Z,0.50
2023-05-03T09:48:48.508Z,1.50
2023-05-03T09:49:52.533Z,1.00
2023-05-03T09:50:56.607Z,1.00
2023-05-03T09:52:00.393Z,0.50
2023-05-03T09:53:04.293Z,0.00
2023-05-03T09:54:08.598Z,0.00
2023-05-03T09:55:12.611Z,0.50
2023-05-03T09:56:16.510Z,0.25
2023-05-03T09:57:20.406Z,0.50
2023-05-03T09:58:24.513Z,0.00
2023-05-03T09:59:28.409Z,0.75
2023-05-03T10:00:34.154Z,0.00
2023-05-03T10:01:39.135Z,0.00
2023-05-03T10:02:43.193Z,1.00
2023-05-03T10:03:47.320Z,1.00
2023-05-03T10:04:51.395Z,0.50
2023-05-03T10:05:55.378Z,0.50
2023-05-03T10:06:59.484Z,0.50
2023-05-03T10:08:03.483Z,0.50
2023-05-03T10:09:07.400Z,1.00
2023-05-03T10:10:11.487Z,1.00
2023-05-03T10:11:15.589Z,1.00
2023-05-03T10:12:19.596Z,0.50
2023-05-03T10:13:24.732Z,0.50
2023-05-03T10:14:28.723Z,1.00
2023-05-03T10:15:33.057Z,0.50
2023-05-03T10:16:37.245Z,0.00
2023-05-03T10:17:47.323Z,0.50
2023-05-03T10:18:46.675Z,0.25
2023-05-03T10:19:50.673Z,0.50
2023-05-03T10:20:54.785Z,1.00
2023-05-03T10:21:58.996Z,0.50
2023-05-03T10:23:03.210Z,0.50
2023-05-03T10:24:07.292Z,1.00
2023-05-03T10:25:12.648Z,0.50
2023-05-03T10:26:16.833Z,0.50
2023-05-03T10:27:21.031Z,1.25
2023-05-03T10:28:25.231Z,0.00
2023-05-03T10:29:29.340Z,0.00
2023-05-03T10:30:33.355Z,0.00
2023-05-03T10:31:37.785Z,0.50
2023-05-03T10:32:41.972Z,1.00
2023-05-03T10:33:49.343Z,0.00
2023-05-03T10:34:53.440Z,0.50
2023-05-03T10:35:57.959Z,0.50
2023-05-03T10:37:02.034Z,1.00
2023-05-03T10:38:06.065Z,0.50
2023-05-03T10:39:10.361Z,0.00
2023-05-03T10:40:15.184Z,0.00
2023-05-03T10:41:19.289Z,0.00
2023-05-03T10:42:23.288Z,0.25
2023-05-03T10:43:27.698Z,0.50
2023-05-03T10:44:31.810Z,1.00
2023-05-03T10:45:35.800Z,1.00
2023-05-03T10:46:39.843Z,0.50
2023-05-03T10:47:43.952Z,0.50
2023-05-03T10:48:47.768Z,0.50
2023-05-03T10:49:51.802Z,1.50
2023-05-03T10:50:55.806Z,0.75
2023-05-03T10:51:59.706Z,1.00
2023-05-03T10:53:03.605Z,0.75
2023-05-03T10:54:07.709Z,0.50
2023-05-03T10:55:11.709Z,1.00
2023-05-03T10:56:15.679Z,1.00
2023-05-03T10:57:19.608Z,0.50
2023-05-03T10:58:23.627Z,1.00
2023-05-03T10:59:27.607Z,0.00
2023-05-03T11:00:31.414Z,0.50
2023-05-03T11:01:35.380Z,1.00
2023-05-03T11:02:39.522Z,1.50
2023-05-03T11:03:43.627Z,1.50
2023-05-03T11:04:47.646Z,0.75
2023-05-03T11:05:51.858Z,1.00
2023-05-03T11:06:57.659Z,1.25
2023-05-03T11:08:01.179Z,1.50
2023-05-03T11:09:05.256Z,0.75
2023-05-03T11:10:10.278Z,1.50
2023-05-03T11:11:14.283Z,1.50
2023-05-03T11:12:18.355Z,1.50
2023-05-03T11:13:22.283Z,2.00
2023-05-03T11:14:26.452Z,2.00
2023-05-03T11:15:30.399Z,1.25
2023-05-03T11:16:34.264Z,0.00
2023-05-03T11:17:38.013Z,0.50
2023-05-03T11:18:44.429Z,1.50
2023-05-03T11:19:48.437Z,1.00
2023-05-03T11:20:52.870Z,1.00
2023-05-03T11:21:57.210Z,1.50
2023-05-03T11:23:01.163Z,0.75
2023-05-03T11:24:05.066Z,0.50
2023-05-03T11:25:09.109Z,1.00
2023-05-03T11:26:13.056Z,1.00
2023-05-03T11:27:19.145Z,1.25
2023-05-03T11:28:23.310Z,1.00
2023-05-03T11:29:27.627Z,1.00
2023-05-03T11:30:31.696Z,1.33
2023-05-03T11:31:35.629Z,1.75
2023-05-03T11:32:39.660Z,0.00
2023-05-03T11:33:43.507Z,0.50
2023-05-03T11:34:47.319Z,0.75
2023-05-03T11:35:51.129Z,1.00
2023-05-03T11:36:55.228Z,1.00
2023-05-03T11:37:59.220Z,2.00
2023-05-03T11:39:03.241Z,0.50
2023-05-03T11:40:07.132Z,0.75
2023-05-03T11:41:11.752Z,1.00
2023-05-03T11:42:15.943Z,0.75
2023-05-03T11:43:21.637Z,1.00
2023-05-03T11:44:30.972Z,0.50
2023-05-03T11:45:35.145Z,2.50
2023-05-03T11:46:41.121Z,1.25
2023-05-03T11:47:44.923Z,0.50
2023-05-03T11:48:50.451Z,1.00
2023-05-03T11:49:54.496Z,2.00
2023-05-03T11:50:58.557Z,2.50
2023-05-03T11:52:02.685Z,1.50
2023-05-03T11:53:06.403Z,1.00
2023-05-03T11:54:21.045Z,1.50
2023-05-03T11:55:15.636Z,1.50
2023-05-03T11:56:19.435Z,3.00
2023-05-03T11:57:23.445Z,3.25
2023-05-03T11:58:27.328Z,1.50
2023-05-03T11:59:32.849Z,1.25
2023-05-03T12:00:36.258Z,2.00
2023-05-03T12:01:40.258Z,2.00
2023-05-03T12:02:44.443Z,2.25
2023-05-03T12:03:48.780Z,1.00
2023-05-03T12:04:53.144Z,2.00
2023-05-03T12:05:57.679Z,1.50
2023-05-03T12:07:03.253Z,2.00
2023-05-03T12:08:07.407Z,1.75
2023-05-03T12:09:13.682Z,2.00
2023-05-03T12:10:22.194Z,2.50
2023-05-03T12:11:22.232Z,2.00
2023-05-03T12:12:31.117Z,3.00
2023-05-03T12:13:34.523Z,3.25
2023-05-03T12:14:39.201Z,3.25
2023-05-03T12:15:43.851Z,2.50
2023-05-03T12:16:49.948Z,3.00
2023-05-03T12:17:55.050Z,1.75
2023-05-03T12:19:01.663Z,3.25
2023-05-03T12:21:30.783Z,2.50
2023-05-03T12:22:24.805Z,3.00
2023-05-03T12:23:21.064Z,1.50
2023-05-03T12:24:26.214Z,2.00
2023-05-03T12:25:33.876Z,4.00
2023-05-03T12:26:37.242Z,3.50
2023-05-03T12:27:41.126Z,2.50
2023-05-03T12:28:45.335Z,1.50
2023-05-03T12:29:50.223Z,2.00
2023-05-03T12:30:57.513Z,2.50
2023-05-03T12:32:00.009Z,1.25
2023-05-03T12:33:05.138Z,2.00
2023-05-03T12:35:14.903Z,4.00
2023-05-03T12:36:21.180Z,5.00
2023-05-03T12:37:27.125Z,4.00
2023-05-03T12:38:31.102Z,4.25
2023-05-03T12:39:38.987Z,3.50
2023-05-03T12:40:39.788Z,4.00
2023-05-03T12:42:52.240Z,2.75
2023-05-03T12:43:57.960Z,3.50
2023-05-03T12:45:04.063Z,4.50
2023-05-03T12:46:30.847Z,5.00
2023-05-03T12:47:15.830Z,4.50
2023-05-03T12:48:16.892Z,4.00
2023-05-03T12:49:22.969Z,3.50
2023-05-03T12:50:29.712Z,6.75
2023-05-03T12:51:33.384Z,4.50
2023-05-03T12:52:37.846Z,3.50
2023-05-03T12:53:41.280Z,3.75
2023-05-03T12:54:47.228Z,3.25
2023-05-03T12:55:51.691Z,4.00
2023-05-03T12:56:55.493Z,3.75
2023-05-03T12:58:32.822Z,2.25
2023-05-03T12:59:23.240Z,3.25
2023-05-03T13:00:14.738Z,3.00
2023-05-03T13:01:51.818Z,2.00
2023-05-03T13:03:19.720Z,1.50
2023-05-03T13:03:32.445Z,2.75
2023-05-03T13:05:37.413Z,3.50
2023-05-03T13:06:43.177Z,4.75
2023-05-03T13:07:52.167Z,5.00
2023-05-03T13:08:51.864Z,3.50
2023-05-03T13:11:00.893Z,2.50
2023-05-03T13:12:04.836Z,3.50
2023-05-03T13:13:08.953Z,3.50
2023-05-03T13:14:13.513Z,1.50
2023-05-03T13:15:17.365Z,3.00
2023-05-03T13:16:21.448Z,2.25
2023-05-03T13:17:25.655Z,1.50
2023-05-03T13:18:29.466Z,1.25
2023-05-03T13:19:33.480Z,1.00
2023-05-03T13:20:37.375Z,3.00
2023-05-03T13:21:41.159Z,2.00
2023-05-03T13:22:44.859Z,0.00
2023-05-03T13:23:50.077Z,1.75
2023-05-03T13:24:54.304Z,2.00
2023-05-03T13:25:58.289Z,3.00
2023-05-03T13:27:02.609Z,3.00
2023-05-03T13:28:06.704Z,2.50
2023-05-03T13:29:10.705Z,1.00
2023-05-03T13:30:14.735Z,1.00
2023-05-03T13:31:18.705Z,1.00
2023-05-03T13:32:22.632Z,2.00
2023-05-03T13:33:26.631Z,2.50
2023-05-03T13:34:30.604Z,3.25
2023-05-03T13:35:34.915Z,3.25
2023-05-03T13:36:39.015Z,1.75
2023-05-03T13:37:43.237Z,1.00
2023-05-03T13:38:47.232Z,1.00
2023-05-03T13:39:51.531Z,1.50
2023-05-03T13:40:55.632Z,2.00
2023-05-03T13:41:59.633Z,1.50
2023-05-03T13:43:03.949Z,1.00
2023-05-03T13:44:08.144Z,1.50
2023-05-03T13:45:12.147Z,3.00
2023-05-03T13:46:16.160Z,3.50
2023-05-03T13:47:20.283Z,2.50
2023-05-03T13:48:24.081Z,2.00
2023-05-03T13:49:28.162Z,2.50
2023-05-03T13:50:32.114Z,3.25
2023-05-03T13:51:36.066Z,2.00
2023-05-03T13:52:40.255Z,4.75
2023-05-03T13:53:44.267Z,5.50
2023-05-03T13:54:48.364Z,2.75
2023-05-03T13:55:52.365Z,2.75
2023-05-03T13:56:56.269Z,4.50
2023-05-03T13:58:00.471Z,4.00
2023-05-03T13:59:04.776Z,3.50
2023-05-03T14:00:08.906Z,3.50
2023-05-03T14:01:13.031Z,3.00
2023-05-03T14:02:17.084Z,2.00
2023-05-03T14:03:21.435Z,2.00
2023-05-03T14:04:25.570Z,2.50
2023-05-03T14:05:29.606Z,1.50
2023-05-03T14:06:34.302Z,2.50
2023-05-03T14:07:38.554Z,3.75
2023-05-03T14:08:42.430Z,2.50
2023-05-03T14:09:46.486Z,1.00
2023-05-03T14:10:50.308Z,0.75
2023-05-03T14:11:55.996Z,1.50
2023-05-03T14:12:58.999Z,1.00
2023-05-03T14:14:02.997Z,1.00
2023-05-03T14:15:07.091Z,1.00
2023-05-03T14:16:10.936Z,2.00
2023-05-03T14:17:14.760Z,2.00
2023-05-03T14:18:18.603Z,2.00
2023-05-03T14:19:22.685Z,2.00
2023-05-03T14:20:26.667Z,2.50
2023-05-03T14:21:30.646Z,2.50
2023-05-03T14:22:34.655Z,1.75
2023-05-03T14:23:38.875Z,1.50